Time;durP1;ratioP1;P1;durP2;ratioP2;P2;SDS_P1;SDS_P2;PMS_P1;PMS_P2;Temp;Humidity;BMP_temperature;BMP_pressure;BME280_temperature;BME280_humidity;BME280_pressure;Samples;Min_cycle;Max_cycle;Signal;HPM_P1;HPM_P2
2021/12/30 00:00:14;;;;;;;47.53;7.32;;;8.80;99.90;;;;;;5104848;28;20070;-87
2021/12/30 00:02:40;;;;;;;54.45;8.27;;;8.80;99.90;;;;;;5073307;28;20035;-87
2021/12/30 00:05:06;;;;;;;47.95;7.53;;;8.80;99.90;;;;;;5090196;28;20046;-87
2021/12/30 00:07:32;;;;;;;59.05;8.38;;;8.80;99.90;;;;;;5077589;28;20401;-87
2021/12/30 00:09:58;;;;;;;44.00;7.75;;;8.80;99.90;;;;;;5082123;27;20476;-87
2021/12/30 00:12:23;;;;;;;58.45;9.25;;;8.80;99.90;;;;;;5085905;27;20039;-87
2021/12/30 00:14:49;;;;;;;53.60;8.73;;;8.70;99.90;;;;;;5101058;27;20473;-87
2021/12/30 00:17:14;;;;;;;47.88;7.50;;;8.70;99.90;;;;;;5093684;28;20476;-87
2021/12/30 00:19:40;;;;;;;62.20;10.48;;;8.70;99.90;;;;;;5094549;28;20089;-87
2021/12/30 00:22:06;;;;;;;51.72;7.53;;;8.70;99.90;;;;;;5089543;27;20048;-87
2021/12/30 00:24:32;;;;;;;55.33;8.70;;;8.70;99.90;;;;;;5080238;28;20393;-87
2021/12/30 00:26:57;;;;;;;50.85;7.78;;;8.70;99.90;;;;;;5110145;27;20032;-87
2021/12/30 00:29:24;;;;;;;61.33;8.30;;;8.70;99.90;;;;;;5112546;27;20489;-87
2021/12/30 00:31:50;;;;;;;68.90;8.77;;;8.70;99.90;;;;;;5081045;28;20042;-87
2021/12/30 00:34:16;;;;;;;68.78;8.55;;;8.60;99.90;;;;;;5075886;28;20051;-87
2021/12/30 00:36:42;;;;;;;59.83;8.40;;;8.70;99.90;;;;;;5080484;27;20035;-87
2021/12/30 00:39:08;;;;;;;60.67;8.68;;;8.70;99.90;;;;;;5080978;28;20384;-87
2021/12/30 00:41:33;;;;;;;57.88;7.53;;;8.60;99.90;;;;;;5112575;27;20486;-87
2021/12/30 00:44:00;;;;;;;59.05;8.48;;;8.60;99.90;;;;;;5074739;28;20317;-87
2021/12/30 00:46:26;;;;;;;52.20;7.60;;;8.60;99.90;;;;;;5093223;27;20529;-87
2021/12/30 00:48:52;;;;;;;44.05;7.40;;;8.60;99.90;;;;;;5077261;27;21638;-87
2021/12/30 00:51:18;;;;;;;48.70;7.68;;;8.60;99.90;;;;;;5115716;27;20506;-87
2021/12/30 00:53:43;;;;;;;43.10;8.27;;;8.60;99.90;;;;;;5097462;27;20540;-87
2021/12/30 00:56:09;;;;;;;53.67;7.15;;;8.60;99.90;;;;;;5112535;27;20036;-87
2021/12/30 00:58:35;;;;;;;57.60;7.88;;;8.60;99.90;;;;;;5084417;28;20036;-87
2021/12/30 01:01:03;;;;;;;48.25;6.80;;;8.50;99.90;;;;;;5109801;27;20127;-87
2021/12/30 01:03:29;;;;;;;51.65;6.25;;;8.50;99.90;;;;;;5100526;27;20039;-87
2021/12/30 01:05:55;;;;;;;56.97;7.57;;;8.50;99.90;;;;;;5098128;27;20124;-87
2021/12/30 01:08:20;;;;;;;46.13;7.88;;;8.50;99.90;;;;;;5099097;27;20182;-87
2021/12/30 01:10:46;;;;;;;47.80;6.90;;;8.50;99.90;;;;;;5078365;28;20404;-87
2021/12/30 01:13:17;;;;;;;56.28;8.15;;;8.50;99.90;;;;;;5096710;28;20043;-87
2021/12/30 01:15:48;;;;;;;51.25;6.97;;;8.50;99.90;;;;;;5097155;27;20038;-87
2021/12/30 01:18:30;;;;;;;58.75;7.93;;;8.40;99.90;;;;;;5076281;27;20167;-87
2021/12/30 01:20:57;;;;;;;48.60;7.07;;;8.40;99.90;;;;;;5075291;28;20036;-87
2021/12/30 01:23:23;;;;;;;44.40;7.03;;;8.40;99.90;;;;;;5094147;28;20127;-87
2021/12/30 01:25:49;;;;;;;53.42;7.50;;;8.40;99.90;;;;;;5099422;28;20504;-87
2021/12/30 01:28:15;;;;;;;48.45;6.90;;;8.40;99.90;;;;;;5093525;27;20046;-87
2021/12/30 01:30:41;;;;;;;49.08;6.55;;;8.40;99.90;;;;;;5078775;27;20542;-87
2021/12/30 01:33:07;;;;;;;45.40;6.85;;;8.40;99.90;;;;;;5094496;27;20085;-87
2021/12/30 01:35:32;;;;;;;41.72;6.07;;;8.40;99.90;;;;;;5099026;27;20056;-87
2021/12/30 01:38:00;;;;;;;54.38;7.28;;;8.40;99.90;;;;;;5124454;27;20071;-87
2021/12/30 01:40:28;;;;;;;48.03;6.47;;;8.40;99.90;;;;;;5102450;27;20035;-87
2021/12/30 01:42:53;;;;;;;64.78;8.20;;;8.40;99.90;;;;;;5091017;27;20488;-87
2021/12/30 01:45:19;;;;;;;48.95;7.03;;;8.40;99.90;;;;;;5091194;27;20078;-87
2021/12/30 01:47:53;;;;;;;44.35;7.07;;;8.40;99.90;;;;;;5130329;27;20115;-86
2021/12/30 01:50:21;;;;;;;40.08;6.22;;;8.40;99.90;;;;;;5096322;27;20035;-87
2021/12/30 01:52:46;;;;;;;38.03;6.22;;;8.50;99.90;;;;;;5121477;27;20500;-86
2021/12/30 01:55:14;;;;;;;52.42;7.13;;;8.40;99.90;;;;;;5094485;28;20134;-87
2021/12/30 01:57:40;;;;;;;45.08;6.78;;;8.50;99.90;;;;;;5116048;27;20039;-86
2021/12/30 02:00:12;;;;;;;43.42;5.75;;;8.50;99.90;;;;;;5090975;28;20088;-87
2021/12/30 02:02:38;;;;;;;39.65;6.72;;;8.50;99.90;;;;;;5134250;27;20038;-87
2021/12/30 02:05:04;;;;;;;60.00;7.55;;;8.50;99.90;;;;;;5107088;28;20047;-87
2021/12/30 02:07:30;;;;;;;54.85;6.75;;;8.50;99.90;;;;;;5127526;27;20044;-87
2021/12/30 02:10:01;;;;;;;40.85;6.28;;;8.40;99.90;;;;;;5093578;27;20046;-87
2021/12/30 02:12:30;;;;;;;46.45;6.03;;;8.40;99.90;;;;;;5111697;27;20034;-87
2021/12/30 02:14:55;;;;;;;38.38;6.65;;;8.40;99.90;;;;;;5123617;27;20074;-87
2021/12/30 02:17:21;;;;;;;55.47;8.15;;;8.50;99.90;;;;;;5105591;28;20062;-87
2021/12/30 02:19:46;;;;;;;51.72;8.25;;;8.40;99.90;;;;;;5097104;27;20078;-87
2021/12/30 02:22:12;;;;;;;47.72;6.43;;;8.40;99.90;;;;;;5112911;27;20485;-87
2021/12/30 02:24:46;;;;;;;49.33;6.78;;;8.40;99.90;;;;;;5117742;27;20472;-87
2021/12/30 02:27:12;;;;;;;48.85;7.72;;;8.40;99.90;;;;;;5095663;27;20088;-87
2021/12/30 02:29:38;;;;;;;47.63;8.68;;;8.30;99.90;;;;;;5095283;28;20447;-87
2021/12/30 02:32:04;;;;;;;46.72;7.45;;;8.30;99.90;;;;;;5094154;28;20032;-87
2021/12/30 02:34:30;;;;;;;54.47;8.48;;;8.30;99.90;;;;;;5094937;27;20035;-87
2021/12/30 02:36:56;;;;;;;40.65;8.43;;;8.30;99.90;;;;;;5116497;27;20096;-87
2021/12/30 02:39:23;;;;;;;64.07;10.43;;;8.30;99.90;;;;;;5118444;27;20048;-87
2021/12/30 02:41:50;;;;;;;56.50;10.88;;;8.30;99.90;;;;;;5112634;27;20057;-87
2021/12/30 02:44:16;;;;;;;73.25;13.35;;;8.30;99.90;;;;;;5096865;27;20042;-86
2021/12/30 02:46:42;;;;;;;63.65;14.05;;;8.40;99.90;;;;;;5128928;27;20121;-88
2021/12/30 02:49:09;;;;;;;68.68;14.75;;;8.40;99.90;;;;;;5097856;27;20070;-87
2021/12/30 02:51:35;;;;;;;80.78;15.88;;;8.50;99.90;;;;;;5099885;27;20046;-87
2021/12/30 02:54:02;;;;;;;86.55;17.50;;;8.50;99.90;;;;;;5135973;27;20038;-87
2021/12/30 02:56:29;;;;;;;86.10;18.50;;;8.60;99.90;;;;;;5133130;27;20075;-86
2021/12/30 02:58:55;;;;;;;87.70;18.92;;;8.60;99.90;;;;;;5108097;27;20080;-87
2021/12/30 03:01:29;;;;;;;78.70;19.10;;;8.70;99.90;;;;;;5093627;27;20038;-86
2021/12/30 03:03:56;;;;;;;92.15;20.67;;;8.70;99.90;;;;;;5105602;27;20038;-86
2021/12/30 03:06:23;;;;;;;78.00;19.13;;;8.80;99.90;;;;;;5121461;27;20489;-87
2021/12/30 03:08:50;;;;;;;86.88;21.25;;;8.80;99.90;;;;;;5094361;28;20052;-87
2021/12/30 03:11:18;;;;;;;97.78;21.70;;;8.90;99.90;;;;;;5099378;28;20042;-86
2021/12/30 03:13:44;;;;;;;96.70;21.92;;;8.90;99.90;;;;;;5087970;28;20039;-87
2021/12/30 03:16:14;;;;;;;95.25;24.23;;;9.00;99.90;;;;;;5106518;28;20121;-87
2021/12/30 03:18:42;;;;;;;91.00;21.15;;;9.00;99.90;;;;;;5100300;28;20469;-86
2021/12/30 03:21:09;;;;;;;86.93;21.83;;;9.00;99.90;;;;;;5120455;28;20516;-86
2021/12/30 03:23:35;;;;;;;85.85;22.08;;;9.10;99.90;;;;;;5085651;28;20074;-87
2021/12/30 03:26:02;;;;;;;84.38;20.70;;;9.10;99.90;;;;;;5088332;27;20088;-86
2021/12/30 03:28:29;;;;;;;80.45;21.38;;;9.10;99.90;;;;;;5118373;27;20043;-86
2021/12/30 03:30:58;;;;;;;86.35;20.80;;;9.20;99.90;;;;;;5103757;27;20497;-86
2021/12/30 03:33:25;;;;;;;77.07;21.92;;;9.20;99.90;;;;;;5114370;27;20054;-86
2021/12/30 03:35:51;;;;;;;87.03;20.70;;;9.30;99.90;;;;;;5100764;27;20489;-86
2021/12/30 03:38:17;;;;;;;81.70;22.02;;;9.30;99.90;;;;;;5099182;27;20050;-87
2021/12/30 03:40:43;;;;;;;97.43;21.60;;;9.30;99.90;;;;;;5113550;27;20035;-87
2021/12/30 03:43:08;;;;;;;81.97;21.08;;;9.30;99.90;;;;;;5129793;27;20069;-87
2021/12/30 03:45:34;;;;;;;82.18;20.10;;;9.40;99.90;;;;;;5132722;27;20047;-86
2021/12/30 03:48:00;;;;;;;89.93;21.45;;;9.40;99.90;;;;;;5118543;27;20415;-87
2021/12/30 03:50:29;;;;;;;81.28;19.38;;;9.40;99.90;;;;;;5101554;27;20034;-87
2021/12/30 03:53:01;;;;;;;79.82;19.80;;;9.40;99.90;;;;;;5134328;27;20043;-87
2021/12/30 03:55:29;;;;;;;91.05;19.52;;;9.40;99.90;;;;;;5116434;27;20031;-86
2021/12/30 03:57:56;;;;;;;85.38;19.77;;;9.40;99.90;;;;;;5131602;27;20053;-87
2021/12/30 04:00:23;;;;;;;74.13;19.00;;;9.40;99.90;;;;;;5117680;27;20038;-87
2021/12/30 04:02:49;;;;;;;88.68;18.35;;;9.40;99.90;;;;;;5120078;27;20043;-86
2021/12/30 04:05:15;;;;;;;86.18;17.13;;;9.50;99.90;;;;;;5103038;27;20464;-87
2021/12/30 04:07:40;;;;;;;81.70;18.40;;;9.50;99.90;;;;;;5116962;27;20031;-87
2021/12/30 04:10:08;;;;;;;78.35;18.20;;;9.50;99.90;;;;;;5135582;27;20035;-86
2021/12/30 04:12:34;;;;;;;83.53;18.85;;;9.40;99.90;;;;;;5099452;27;20038;-86
2021/12/30 04:15:03;;;;;;;80.72;18.63;;;9.40;99.90;;;;;;5109689;27;20039;-87
2021/12/30 04:17:29;;;;;;;77.43;18.35;;;9.40;99.90;;;;;;5099606;27;20473;-85
2021/12/30 04:19:55;;;;;;;86.93;18.58;;;9.40;99.90;;;;;;5135113;27;20035;-85
2021/12/30 04:22:20;;;;;;;73.07;18.30;;;9.50;99.90;;;;;;5121246;27;20053;-85
2021/12/30 04:24:47;;;;;;;83.15;18.70;;;9.40;99.90;;;;;;5136302;27;20526;-84
2021/12/30 04:27:13;;;;;;;83.30;18.75;;;9.40;99.90;;;;;;5102999;27;20039;-84
2021/12/30 04:29:39;;;;;;;88.32;19.50;;;9.40;99.90;;;;;;5116173;27;20073;-85
2021/12/30 04:32:06;;;;;;;77.40;18.17;;;9.50;99.90;;;;;;5115553;27;20035;-84
2021/12/30 04:34:31;;;;;;;82.18;19.40;;;9.50;99.90;;;;;;5112219;27;20031;-85
2021/12/30 04:37:00;;;;;;;79.15;18.05;;;9.50;99.90;;;;;;5106619;27;20046;-85
2021/12/30 04:39:27;;;;;;;88.43;17.45;;;9.50;99.90;;;;;;5105004;27;20170;-84
2021/12/30 04:41:53;;;;;;;95.55;19.42;;;9.50;99.90;;;;;;5095932;27;20035;-85
2021/12/30 04:44:19;;;;;;;78.40;18.73;;;9.60;99.90;;;;;;5126118;27;20106;-85
2021/12/30 04:46:44;;;;;;;86.13;18.98;;;9.60;99.90;;;;;;5121966;27;20047;-85
2021/12/30 04:49:10;;;;;;;84.68;20.02;;;9.60;99.90;;;;;;5117991;27;20117;-84
2021/12/30 04:51:35;;;;;;;74.55;18.10;;;9.70;99.90;;;;;;5119286;27;20043;-85
2021/12/30 04:54:02;;;;;;;76.68;19.40;;;9.70;99.90;;;;;;5099009;27;20035;-85
2021/12/30 04:56:27;;;;;;;86.15;20.38;;;9.80;99.90;;;;;;5134107;27;20451;-84
2021/12/30 04:58:53;;;;;;;84.18;19.75;;;9.80;99.90;;;;;;5133804;27;20042;-85
2021/12/30 05:01:19;;;;;;;88.43;21.42;;;9.80;99.90;;;;;;5123098;27;20035;-85
2021/12/30 05:03:44;;;;;;;91.55;20.20;;;9.80;99.90;;;;;;5123044;27;20031;-85
2021/12/30 05:06:10;;;;;;;85.93;19.13;;;9.90;99.90;;;;;;5119257;27;20035;-85
2021/12/30 05:08:36;;;;;;;93.95;21.10;;;9.90;99.90;;;;;;5116476;27;20085;-85
2021/12/30 05:11:01;;;;;;;85.53;20.63;;;9.90;99.90;;;;;;5116265;27;20487;-85
2021/12/30 05:13:27;;;;;;;78.13;19.60;;;9.90;99.90;;;;;;5096675;27;20041;-85
2021/12/30 05:15:53;;;;;;;77.38;20.40;;;9.90;99.90;;;;;;5092891;27;20032;-85
2021/12/30 05:18:20;;;;;;;90.47;21.20;;;10.00;99.90;;;;;;5119059;27;20043;-85
2021/12/30 05:20:47;;;;;;;87.82;21.00;;;10.00;99.90;;;;;;5119444;27;20054;-85
2021/12/30 05:23:13;;;;;;;86.05;21.48;;;10.10;99.90;;;;;;5116309;27;20039;-86
2021/12/30 05:25:38;;;;;;;70.68;21.17;;;10.10;99.90;;;;;;5100572;27;20365;-85
2021/12/30 05:28:04;;;;;;;80.30;21.42;;;10.10;99.90;;;;;;5098930;27;20457;-86
2021/12/30 05:30:30;;;;;;;72.03;20.38;;;10.10;99.90;;;;;;5132531;27;20384;-86
2021/12/30 05:32:57;;;;;;;74.68;19.58;;;10.10;99.90;;;;;;5119072;27;20126;-86
2021/12/30 05:35:23;;;;;;;65.20;19.85;;;10.10;99.90;;;;;;5115912;27;20545;-85
2021/12/30 05:37:49;;;;;;;58.30;18.25;;;10.20;99.90;;;;;;5134569;27;20034;-86
2021/12/30 05:40:18;;;;;;;67.40;17.52;;;10.20;99.90;;;;;;5116116;27;20054;-85
2021/12/30 05:42:45;;;;;;;67.95;19.88;;;10.20;99.90;;;;;;5130707;27;20061;-86
2021/12/30 05:45:14;;;;;;;61.50;18.67;;;10.20;99.90;;;;;;5126900;27;20129;-86
2021/12/30 05:47:41;;;;;;;59.95;18.60;;;10.30;99.90;;;;;;5096653;27;20047;-86
2021/12/30 05:50:09;;;;;;;61.75;17.65;;;10.40;99.90;;;;;;5099726;27;20072;-85
2021/12/30 05:52:36;;;;;;;61.63;18.02;;;10.30;99.90;;;;;;5113000;27;20033;-86
2021/12/30 05:55:03;;;;;;;57.70;17.27;;;10.40;99.90;;;;;;5114835;27;20062;-86
2021/12/30 05:57:29;;;;;;;69.60;18.52;;;10.40;99.90;;;;;;5136770;27;20407;-86
2021/12/30 05:59:55;;;;;;;50.40;16.42;;;10.40;99.90;;;;;;5117697;27;20045;-86
2021/12/30 06:02:21;;;;;;;65.75;19.10;;;10.40;99.90;;;;;;5097992;27;20031;-86
2021/12/30 06:04:47;;;;;;;72.50;19.20;;;10.40;99.90;;;;;;5135692;27;20039;-86
2021/12/30 06:07:12;;;;;;;76.40;21.08;;;10.50;99.90;;;;;;5114069;27;20050;-86
2021/12/30 06:09:38;;;;;;;88.25;21.92;;;10.40;99.90;;;;;;5119290;27;20030;-86
2021/12/30 06:12:04;;;;;;;86.47;23.00;;;10.50;99.90;;;;;;5116185;27;20034;-85
2021/12/30 06:14:29;;;;;;;105.28;23.67;;;10.50;99.90;;;;;;5107103;27;20071;-85
2021/12/30 06:16:55;;;;;;;115.63;26.17;;;10.50;99.90;;;;;;5121308;27;20069;-86
2021/12/30 06:19:21;;;;;;;119.03;27.13;;;10.50;99.90;;;;;;5113364;27;20035;-85
2021/12/30 06:21:46;;;;;;;121.05;29.10;;;10.60;99.90;;;;;;5126914;27;20495;-86
2021/12/30 06:24:12;;;;;;;123.05;28.83;;;10.60;99.90;;;;;;5130429;27;20056;-86
2021/12/30 06:26:38;;;;;;;136.30;29.27;;;10.60;99.90;;;;;;5120310;27;20058;-86
2021/12/30 06:29:04;;;;;;;125.45;28.88;;;10.70;99.90;;;;;;5092865;27;20156;-86
2021/12/30 06:31:30;;;;;;;129.88;29.23;;;10.70;99.90;;;;;;5111849;27;20035;-85
2021/12/30 06:33:56;;;;;;;159.75;32.83;;;10.70;99.90;;;;;;5102137;27;20030;-86
2021/12/30 06:36:21;;;;;;;148.63;31.92;;;10.80;99.90;;;;;;5099987;27;20545;-86
2021/12/30 06:38:48;;;;;;;124.95;28.90;;;10.80;99.90;;;;;;5113856;27;20054;-86
2021/12/30 06:41:14;;;;;;;144.43;30.20;;;10.80;99.90;;;;;;5093789;27;20321;-86
2021/12/30 06:43:41;;;;;;;144.25;29.50;;;10.80;99.90;;;;;;5092538;27;20066;-86
2021/12/30 06:46:09;;;;;;;123.82;26.80;;;10.90;99.90;;;;;;5100958;27;20038;-86
2021/12/30 06:48:35;;;;;;;112.03;25.13;;;10.80;99.90;;;;;;5110809;27;20617;-86
2021/12/30 06:51:03;;;;;;;90.32;22.70;;;10.90;99.90;;;;;;5102859;27;20088;-86
2021/12/30 06:53:29;;;;;;;122.20;25.73;;;10.90;99.90;;;;;;5089806;27;20031;-86
2021/12/30 06:55:55;;;;;;;103.95;23.85;;;10.90;99.90;;;;;;5091060;28;20121;-86
2021/12/30 06:58:22;;;;;;;128.32;27.02;;;11.00;99.90;;;;;;5117433;27;22165;-86
2021/12/30 07:00:49;;;;;;;97.15;23.00;;;11.00;99.90;;;;;;5106216;27;20453;-85
2021/12/30 07:03:15;;;;;;;101.00;22.02;;;10.90;99.90;;;;;;5091440;27;20047;-85
2021/12/30 07:05:40;;;;;;;92.70;21.73;;;11.00;99.90;;;;;;5091511;27;20042;-85
2021/12/30 07:08:06;;;;;;;75.15;19.25;;;11.00;99.90;;;;;;5114141;27;20400;-85
2021/12/30 07:10:32;;;;;;;102.57;22.02;;;11.00;99.90;;;;;;5131358;27;20108;-85
2021/12/30 07:12:58;;;;;;;68.15;18.23;;;11.00;99.90;;;;;;5098227;27;20031;-85
2021/12/30 07:15:23;;;;;;;71.43;18.92;;;11.00;99.90;;;;;;5116470;27;20042;-86
2021/12/30 07:17:49;;;;;;;73.40;17.70;;;11.10;99.90;;;;;;5109570;27;20054;-86
2021/12/30 07:20:15;;;;;;;78.45;17.73;;;11.10;99.90;;;;;;5109409;27;20043;-86
2021/12/30 07:22:41;;;;;;;70.13;16.27;;;11.20;99.90;;;;;;5107214;28;20039;-86
2021/12/30 07:25:07;;;;;;;63.45;16.10;;;11.10;99.90;;;;;;5104086;27;20520;-85
2021/12/30 07:27:33;;;;;;;65.88;15.55;;;11.10;99.90;;;;;;5103454;27;20031;-85
2021/12/30 07:29:59;;;;;;;48.00;14.45;;;11.10;99.90;;;;;;5118485;27;20114;-87
2021/12/30 07:32:26;;;;;;;54.97;13.75;;;11.10;99.90;;;;;;5131741;27;20488;-86
2021/12/30 07:34:52;;;;;;;48.17;13.05;;;11.10;99.90;;;;;;5114323;28;20163;-86
2021/12/30 07:37:18;;;;;;;50.40;13.52;;;11.10;99.90;;;;;;5097017;27;20515;-86
2021/12/30 07:39:45;;;;;;;47.42;12.13;;;11.10;99.90;;;;;;5114659;27;20042;-85
2021/12/30 07:42:12;;;;;;;36.63;10.85;;;11.10;99.90;;;;;;5093888;28;20076;-85
2021/12/30 07:44:39;;;;;;;40.63;11.10;;;11.10;99.90;;;;;;5109481;28;20454;-85
2021/12/30 07:47:05;;;;;;;41.10;10.30;;;11.10;99.90;;;;;;5093413;28;20043;-85
2021/12/30 07:49:32;;;;;;;27.52;8.68;;;11.20;99.90;;;;;;5113294;27;20038;-85
2021/12/30 07:51:58;;;;;;;25.77;8.35;;;11.20;99.90;;;;;;5092304;27;20115;-84
2021/12/30 07:54:24;;;;;;;30.17;8.00;;;11.20;99.90;;;;;;5097658;27;20383;-86
2021/12/30 07:56:50;;;;;;;22.48;6.93;;;11.20;99.90;;;;;;5093034;27;20038;-85
2021/12/30 07:59:16;;;;;;;23.60;6.63;;;11.10;99.90;;;;;;5092572;27;20540;-84
2021/12/30 08:01:42;;;;;;;24.50;6.80;;;11.20;99.90;;;;;;5096363;27;20040;-86
2021/12/30 08:04:07;;;;;;;21.15;6.78;;;11.20;99.90;;;;;;5097352;28;20128;-84
2021/12/30 08:06:33;;;;;;;18.23;5.63;;;11.20;99.90;;;;;;5091182;28;20484;-84
2021/12/30 08:08:59;;;;;;;17.50;5.72;;;11.20;99.90;;;;;;5094721;27;20504;-84
2021/12/30 08:11:25;;;;;;;17.58;5.82;;;11.30;99.90;;;;;;5092716;27;20031;-83
2021/12/30 08:13:51;;;;;;;17.70;6.05;;;11.30;99.90;;;;;;5095601;27;20653;-84
2021/12/30 08:16:17;;;;;;;15.25;6.03;;;11.30;99.90;;;;;;5114633;27;20039;-84
2021/12/30 08:18:42;;;;;;;14.48;6.03;;;11.30;99.90;;;;;;5115344;27;20058;-85
2021/12/30 08:21:09;;;;;;;16.83;6.22;;;11.30;99.90;;;;;;5112295;27;20089;-86
2021/12/30 08:23:35;;;;;;;16.33;6.30;;;11.30;99.90;;;;;;5107320;27;20080;-86
2021/12/30 08:26:03;;;;;;;20.08;6.57;;;11.30;99.90;;;;;;5101138;27;20038;-86
2021/12/30 08:28:29;;;;;;;18.40;6.68;;;11.40;99.90;;;;;;5099126;27;20405;-86
2021/12/30 08:30:54;;;;;;;15.75;5.75;;;11.30;99.90;;;;;;5115714;27;20035;-86
2021/12/30 08:33:20;;;;;;;18.33;6.20;;;11.40;99.90;;;;;;5094394;27;20464;-84
2021/12/30 08:35:46;;;;;;;16.42;5.97;;;11.40;99.90;;;;;;5106901;27;20039;-83
2021/12/30 08:38:13;;;;;;;15.93;5.53;;;11.40;99.90;;;;;;5095449;27;20035;-83
2021/12/30 08:40:40;;;;;;;13.77;5.72;;;11.40;99.90;;;;;;5095431;27;20070;-83
2021/12/30 08:43:06;;;;;;;16.52;5.90;;;11.40;99.90;;;;;;5109903;27;20043;-82
2021/12/30 08:45:33;;;;;;;16.67;6.70;;;11.50;99.90;;;;;;5096009;27;20066;-83
2021/12/30 08:48:00;;;;;;;15.80;6.60;;;11.40;99.90;;;;;;5093354;27;20123;-83
2021/12/30 08:50:26;;;;;;;19.17;7.25;;;11.50;99.90;;;;;;5094770;27;20598;-84
2021/12/30 08:52:51;;;;;;;20.88;8.20;;;11.50;99.90;;;;;;5108368;27;20109;-83
2021/12/30 08:55:18;;;;;;;20.73;8.77;;;11.60;99.90;;;;;;5092307;27;20023;-85
2021/12/30 08:57:44;;;;;;;23.20;9.50;;;11.50;99.90;;;;;;5126129;27;20113;-84
2021/12/30 09:00:23;;;;;;;27.60;10.32;;;11.60;99.90;;;;;;5090900;27;20524;-83
2021/12/30 09:02:50;;;;;;;24.27;10.13;;;11.60;99.90;;;;;;5114498;27;20077;-83
2021/12/30 09:05:16;;;;;;;28.08;10.60;;;11.60;99.90;;;;;;5114909;27;20046;-82
2021/12/30 09:07:42;;;;;;;30.55;11.50;;;11.60;99.90;;;;;;5115129;27;20036;-83
2021/12/30 09:10:11;;;;;;;25.88;11.73;;;11.70;99.90;;;;;;5113979;27;20078;-83
2021/12/30 09:12:37;;;;;;;30.13;11.60;;;11.60;99.90;;;;;;5132168;27;20027;-83
2021/12/30 09:15:05;;;;;;;29.77;11.18;;;11.70;99.90;;;;;;5101391;27;20465;-83
2021/12/30 09:17:31;;;;;;;26.98;10.32;;;11.70;99.90;;;;;;5103835;27;20134;-82
2021/12/30 09:19:57;;;;;;;26.45;10.43;;;11.80;99.90;;;;;;5107455;27;20552;-82
2021/12/30 09:22:23;;;;;;;20.08;8.43;;;11.80;99.90;;;;;;5112116;27;20089;-82
2021/12/30 09:24:49;;;;;;;22.98;8.07;;;11.80;99.90;;;;;;5089446;27;20079;-82
2021/12/30 09:27:15;;;;;;;24.10;8.68;;;11.80;99.90;;;;;;5090330;27;20102;-81
2021/12/30 09:29:41;;;;;;;23.55;8.43;;;11.80;99.90;;;;;;5092193;27;20034;-81
2021/12/30 09:32:07;;;;;;;23.08;8.88;;;11.90;99.90;;;;;;5108034;27;20138;-83
2021/12/30 09:34:33;;;;;;;28.10;9.10;;;11.90;99.90;;;;;;5090089;27;20119;-83
2021/12/30 09:36:59;;;;;;;19.30;7.85;;;11.90;99.90;;;;;;5103759;27;20075;-81
2021/12/30 09:39:24;;;;;;;23.17;8.13;;;11.90;99.90;;;;;;5092167;27;20426;-82
2021/12/30 09:41:50;;;;;;;26.67;8.80;;;12.00;99.90;;;;;;5117174;27;20180;-84
2021/12/30 09:44:18;;;;;;;29.58;8.93;;;11.90;99.90;;;;;;5117596;27;20509;-82
2021/12/30 09:46:45;;;;;;;32.65;9.20;;;11.90;99.90;;;;;;5110347;27;20035;-81
2021/12/30 09:49:14;;;;;;;25.33;8.23;;;12.00;99.90;;;;;;5111096;27;20046;-82
2021/12/30 09:51:42;;;;;;;28.52;9.50;;;11.90;99.90;;;;;;5111038;27;20043;-85
2021/12/30 09:54:08;;;;;;;23.55;9.20;;;12.00;99.90;;;;;;5093723;27;20111;-83
2021/12/30 09:56:34;;;;;;;26.70;8.50;;;12.00;99.90;;;;;;5124275;27;20061;-83
2021/12/30 09:58:59;;;;;;;21.95;8.23;;;11.90;99.90;;;;;;5112475;27;20191;-82
2021/12/30 10:01:25;;;;;;;20.83;8.63;;;12.00;99.90;;;;;;5111448;27;20028;-82
2021/12/30 10:03:56;;;;;;;21.38;8.27;;;11.90;99.90;;;;;;5109031;27;20035;-82
2021/12/30 10:06:22;;;;;;;21.13;8.27;;;12.00;99.90;;;;;;5106924;27;20042;-83
2021/12/30 10:08:57;;;;;;;24.30;8.45;;;12.00;99.90;;;;;;5109202;27;20036;-85
2021/12/30 10:11:24;;;;;;;22.77;8.60;;;12.00;99.90;;;;;;5094857;27;20158;-85
2021/12/30 10:14:12;;;;;;;19.83;7.70;;;12.00;99.90;;;;;;5109244;27;20630;-82
2021/12/30 10:16:38;;;;;;;14.43;5.75;;;11.90;99.90;;;;;;5110580;27;20047;-83
2021/12/30 10:19:05;;;;;;;17.23;5.93;;;11.90;99.90;;;;;;5105052;27;20561;-82
2021/12/30 10:21:42;;;;;;;18.10;5.22;;;12.00;99.90;;;;;;5089648;27;20043;-83
2021/12/30 10:24:11;;;;;;;20.40;5.38;;;12.00;99.90;;;;;;5087165;27;20063;-83
2021/12/30 10:26:47;;;;;;;19.10;5.35;;;12.00;99.90;;;;;;5105612;27;20031;-83
2021/12/30 10:29:13;;;;;;;16.67;5.45;;;12.00;99.90;;;;;;5085477;27;20032;-83
2021/12/30 10:31:40;;;;;;;15.77;4.80;;;12.00;99.90;;;;;;5122482;27;20035;-83
2021/12/30 10:34:09;;;;;;;17.48;5.55;;;12.00;99.90;;;;;;5088079;27;20066;-83
2021/12/30 10:36:49;;;;;;;15.13;4.95;;;12.00;99.90;;;;;;5118435;27;20084;-83
2021/12/30 10:39:27;;;;;;;17.35;5.40;;;12.00;99.90;;;;;;5113126;27;20047;-83
2021/12/30 10:42:07;;;;;;;20.60;5.20;;;12.00;99.90;;;;;;5112897;27;20038;-83
2021/12/30 10:44:55;;;;;;;21.75;6.30;;;12.00;99.90;;;;;;5105909;27;20043;-83
2021/12/30 10:47:24;;;;;;;22.48;6.25;;;12.00;99.90;;;;;;5104750;27;20129;-83
2021/12/30 10:49:59;;;;;;;21.13;5.88;;;11.90;99.90;;;;;;5089006;27;20087;-83
2021/12/30 10:52:26;;;;;;;24.98;6.40;;;11.90;99.90;;;;;;5103929;27;20085;-82
2021/12/30 10:54:52;;;;;;;23.17;6.32;;;11.90;99.90;;;;;;5107358;27;20459;-83
2021/12/30 10:57:18;;;;;;;26.08;7.03;;;12.00;99.90;;;;;;5106319;27;20562;-83
2021/12/30 10:59:49;;;;;;;28.35;7.75;;;12.00;99.90;;;;;;5108959;27;20348;-83
2021/12/30 11:02:18;;;;;;;28.77;6.85;;;12.00;99.90;;;;;;5107077;28;20039;-83
2021/12/30 11:04:50;;;;;;;29.70;6.22;;;12.10;99.90;;;;;;5123355;27;20037;-83
2021/12/30 11:07:19;;;;;;;35.58;7.72;;;12.10;99.90;;;;;;5098156;28;20073;-83
2021/12/30 11:09:55;;;;;;;29.73;7.47;;;12.00;99.90;;;;;;5107776;27;20118;-82
2021/12/30 11:12:38;;;;;;;36.40;7.40;;;12.10;99.90;;;;;;5083934;28;20580;-83
2021/12/30 11:15:27;;;;;;;29.67;6.50;;;12.00;99.90;;;;;;5104608;28;20066;-83
2021/12/30 11:18:15;;;;;;;26.42;6.72;;;12.10;99.90;;;;;;5120364;28;20049;-82
2021/12/30 11:20:47;;;;;;;36.60;7.75;;;12.10;99.90;;;;;;5085375;28;20505;-83
2021/12/30 11:23:14;;;;;;;40.20;6.97;;;12.10;99.90;;;;;;5085884;28;20046;-81
2021/12/30 11:25:40;;;;;;;28.08;6.55;;;12.00;99.90;;;;;;5087905;28;20035;-83
2021/12/30 11:28:06;;;;;;;22.65;6.57;;;12.10;99.90;;;;;;5104597;28;20050;-83
2021/12/30 11:30:31;;;;;;;38.63;7.28;;;12.00;99.90;;;;;;5101777;28;20143;-82
2021/12/30 11:32:58;;;;;;;26.08;6.68;;;12.00;99.90;;;;;;5103607;28;20040;-83
2021/12/30 11:35:27;;;;;;;33.97;6.68;;;12.00;99.90;;;;;;5106578;28;20544;-84
2021/12/30 11:37:56;;;;;;;27.27;6.72;;;12.00;99.90;;;;;;5088022;28;20492;-83
2021/12/30 11:40:25;;;;;;;36.08;7.53;;;12.10;99.90;;;;;;5102608;28;20035;-83
2021/12/30 11:43:08;;;;;;;32.15;6.85;;;12.00;99.90;;;;;;5091351;28;20292;-83
2021/12/30 11:45:39;;;;;;;29.65;6.22;;;12.00;99.90;;;;;;5096415;28;20077;-83
2021/12/30 11:48:25;;;;;;;29.65;6.07;;;12.10;99.90;;;;;;5108197;27;20505;-84
2021/12/30 11:51:05;;;;;;;34.47;6.05;;;12.00;99.90;;;;;;5102624;27;20035;-83
2021/12/30 11:53:30;;;;;;;36.05;6.72;;;12.00;99.90;;;;;;5120581;27;20424;-82
2021/12/30 11:56:02;;;;;;;27.48;6.03;;;12.00;99.90;;;;;;5090904;27;20035;-83
2021/12/30 11:58:32;;;;;;;36.20;6.95;;;12.00;99.90;;;;;;5109828;27;20531;-83
2021/12/30 12:01:24;;;;;;;39.03;7.63;;;12.00;99.90;;;;;;5120609;27;20071;-83
2021/12/30 12:03:53;;;;;;;34.15;6.20;;;12.10;99.90;;;;;;5107236;27;20043;-83
2021/12/30 12:06:24;;;;;;;34.67;6.28;;;12.00;99.90;;;;;;5091529;27;20035;-83
2021/12/30 12:09:18;;;;;;;30.30;6.53;;;12.10;99.90;;;;;;5104581;27;20035;-83
2021/12/30 12:11:47;;;;;;;34.03;6.28;;;12.10;99.90;;;;;;5107676;27;20035;-82
2021/12/30 12:14:17;;;;;;;38.47;7.18;;;12.10;99.90;;;;;;5086484;27;20031;-83
2021/12/30 12:16:49;;;;;;;33.65;6.07;;;12.10;99.90;;;;;;5090055;27;20027;-83
2021/12/30 12:19:17;;;;;;;30.50;6.47;;;12.10;99.90;;;;;;5108602;27;20046;-83
2021/12/30 12:21:46;;;;;;;36.08;6.45;;;12.10;99.90;;;;;;5092870;27;20035;-83
2021/12/30 12:24:21;;;;;;;31.30;6.30;;;12.10;99.90;;;;;;5106589;27;20097;-83
2021/12/30 12:26:55;;;;;;;30.43;6.50;;;12.10;99.90;;;;;;5109989;27;20331;-82
2021/12/30 12:29:32;;;;;;;28.92;5.40;;;12.10;99.90;;;;;;5091860;27;20348;-83
2021/12/30 12:32:10;;;;;;;30.33;6.40;;;12.10;99.90;;;;;;5124334;27;20083;-83
2021/12/30 12:34:36;;;;;;;35.50;5.88;;;12.10;99.90;;;;;;5109334;27;20168;-83
2021/12/30 12:37:02;;;;;;;32.58;6.68;;;12.10;99.90;;;;;;5090919;27;20035;-84